sensor_id;sensor_type;location;lat;lon;timestamp;P1;durP1;ratioP1;P2;durP2;ratioP2
46090;SDS011;31826;53.572;10.170;2023-05-08T00:00:22;5.68;;;2.78;;
46090;SDS011;31826;53.572;10.170;2023-05-08T00:02:48;4.63;;;2.70;;
46090;SDS011;31826;53.572;10.170;2023-05-08T00:05:13;4.17;;;2.57;;
46090;SDS011;31826;53.572;10.170;2023-05-08T00:07:40;5.75;;;2.63;;
46090;SDS011;31826;53.572;10.170;2023-05-08T00:10:06;3.83;;;2.30;;
46090;SDS011;31826;53.572;10.170;2023-05-08T00:12:33;3.28;;;2.30;;
46090;SDS011;31826;53.572;10.170;2023-05-08T00:15:00;5.33;;;2.60;;
46090;SDS011;31826;53.572;10.170;2023-05-08T00:17:26;5.40;;;2.42;;
46090;SDS011;31826;53.572;10.170;2023-05-08T00:19:52;6.10;;;2.50;;
46090;SDS011;31826;53.572;10.170;2023-05-08T00:22:18;3.85;;;2.20;;
46090;SDS011;31826;53.572;10.170;2023-05-08T00:24:44;4.97;;;2.63;;
46090;SDS011;31826;53.572;10.170;2023-05-08T00:27:09;5.50;;;2.33;;
46090;SDS011;31826;53.572;10.170;2023-05-08T00:29:35;4.27;;;2.50;;
46090;SDS011;31826;53.572;10.170;2023-05-08T00:32:01;5.97;;;2.83;;
46090;SDS011;31826;53.572;10.170;2023-05-08T00:34:27;5.03;;;2.67;;
46090;SDS011;31826;53.572;10.170;2023-05-08T00:36:52;4.43;;;2.70;;
46090;SDS011;31826;53.572;10.170;2023-05-08T00:39:20;4.53;;;2.60;;
46090;SDS011;31826;53.572;10.170;2023-05-08T00:41:46;4.68;;;3.20;;
46090;SDS011;31826;53.572;10.170;2023-05-08T00:44:11;4.50;;;2.60;;
46090;SDS011;31826;53.572;10.170;2023-05-08T00:46:37;3.85;;;2.65;;
46090;SDS011;31826;53.572;10.170;2023-05-08T00:49:04;4.25;;;2.47;;
46090;SDS011;31826;53.572;10.170;2023-05-08T00:51:30;6.50;;;3.10;;
46090;SDS011;31826;53.572;10.170;2023-05-08T00:53:57;6.22;;;2.80;;
46090;SDS011;31826;53.572;10.170;2023-05-08T00:56:24;4.38;;;2.63;;
46090;SDS011;31826;53.572;10.170;2023-05-08T00:58:52;6.57;;;2.80;;
46090;SDS011;31826;53.572;10.170;2023-05-08T01:01:18;6.13;;;2.72;;
46090;SDS011;31826;53.572;10.170;2023-05-08T01:03:44;4.20;;;2.57;;
46090;SDS011;31826;53.572;10.170;2023-05-08T01:06:10;4.38;;;2.72;;
46090;SDS011;31826;53.572;10.170;2023-05-08T01:08:36;4.53;;;2.67;;
46090;SDS011;31826;53.572;10.170;2023-05-08T01:11:10;4.72;;;2.60;;
46090;SDS011;31826;53.572;10.170;2023-05-08T01:14:14;6.53;;;3.30;;
46090;SDS011;31826;53.572;10.170;2023-05-08T01:28:04;6.22;;;3.10;;
46090;SDS011;31826;53.572;10.170;2023-05-08T01:30:57;6.77;;;3.13;;
46090;SDS011;31826;53.572;10.170;2023-05-08T01:33:48;4.75;;;2.90;;
46090;SDS011;31826;53.572;10.170;2023-05-08T01:36:47;4.28;;;2.65;;
46090;SDS011;31826;53.572;10.170;2023-05-08T01:39:20;7.18;;;3.10;;
46090;SDS011;31826;53.572;10.170;2023-05-08T01:41:57;6.93;;;2.97;;
46090;SDS011;31826;53.572;10.170;2023-05-08T01:44:31;4.68;;;2.50;;
46090;SDS011;31826;53.572;10.170;2023-05-08T01:47:02;4.90;;;2.80;;
46090;SDS011;31826;53.572;10.170;2023-05-08T01:49:37;6.13;;;2.90;;
46090;SDS011;31826;53.572;10.170;2023-05-08T01:52:21;5.13;;;2.83;;
46090;SDS011;31826;53.572;10.170;2023-05-08T01:55:00;6.07;;;2.88;;
46090;SDS011;31826;53.572;10.170;2023-05-08T01:57:29;4.05;;;2.58;;
46090;SDS011;31826;53.572;10.170;2023-05-08T01:59:58;5.32;;;2.92;;
46090;SDS011;31826;53.572;10.170;2023-05-08T02:02:27;5.07;;;3.10;;
46090;SDS011;31826;53.572;10.170;2023-05-08T02:04:55;4.87;;;2.73;;
46090;SDS011;31826;53.572;10.170;2023-05-08T02:07:22;6.47;;;2.80;;
46090;SDS011;31826;53.572;10.170;2023-05-08T02:09:49;5.47;;;2.90;;
46090;SDS011;31826;53.572;10.170;2023-05-08T02:12:17;6.50;;;3.17;;
46090;SDS011;31826;53.572;10.170;2023-05-08T02:14:46;6.47;;;3.20;;
46090;SDS011;31826;53.572;10.170;2023-05-08T02:17:14;6.43;;;3.03;;
46090;SDS011;31826;53.572;10.170;2023-05-08T02:19:41;5.90;;;3.25;;
46090;SDS011;31826;53.572;10.170;2023-05-08T02:22:08;7.05;;;3.20;;
46090;SDS011;31826;53.572;10.170;2023-05-08T02:24:35;5.30;;;3.20;;
46090;SDS011;31826;53.572;10.170;2023-05-08T02:27:02;6.80;;;3.08;;
46090;SDS011;31826;53.572;10.170;2023-05-08T02:29:30;5.75;;;3.22;;
46090;SDS011;31826;53.572;10.170;2023-05-08T02:31:56;5.95;;;3.10;;
46090;SDS011;31826;53.572;10.170;2023-05-08T02:34:24;6.95;;;3.30;;
46090;SDS011;31826;53.572;10.170;2023-05-08T02:36:52;7.05;;;3.28;;
46090;SDS011;31826;53.572;10.170;2023-05-08T02:39:19;5.85;;;3.38;;
46090;SDS011;31826;53.572;10.170;2023-05-08T02:41:49;6.30;;;3.03;;
46090;SDS011;31826;53.572;10.170;2023-05-08T02:44:15;7.05;;;3.30;;
46090;SDS011;31826;53.572;10.170;2023-05-08T02:47:04;5.63;;;3.00;;
46090;SDS011;31826;53.572;10.170;2023-05-08T02:57:17;5.30;;;3.05;;
46090;SDS011;31826;53.572;10.170;2023-05-08T02:59:55;6.60;;;3.58;;
46090;SDS011;31826;53.572;10.170;2023-05-08T03:02:38;6.53;;;3.15;;
46090;SDS011;31826;53.572;10.170;2023-05-08T03:05:10;6.72;;;3.38;;
46090;SDS011;31826;53.572;10.170;2023-05-08T03:07:41;7.00;;;3.00;;
46090;SDS011;31826;53.572;10.170;2023-05-08T03:10:09;6.25;;;3.25;;
46090;SDS011;31826;53.572;10.170;2023-05-08T03:12:41;6.82;;;3.35;;
46090;SDS011;31826;53.572;10.170;2023-05-08T03:15:32;5.47;;;3.15;;
46090;SDS011;31826;53.572;10.170;2023-05-08T03:18:06;6.05;;;3.08;;
46090;SDS011;31826;53.572;10.170;2023-05-08T03:20:39;6.43;;;3.55;;
46090;SDS011;31826;53.572;10.170;2023-05-08T03:23:08;6.27;;;3.80;;
46090;SDS011;31826;53.572;10.170;2023-05-08T03:25:35;7.05;;;3.38;;
46090;SDS011;31826;53.572;10.170;2023-05-08T03:28:04;5.88;;;3.25;;
46090;SDS011;31826;53.572;10.170;2023-05-08T03:30:31;5.30;;;2.85;;
46090;SDS011;31826;53.572;10.170;2023-05-08T03:32:59;5.80;;;3.20;;
46090;SDS011;31826;53.572;10.170;2023-05-08T03:35:27;6.95;;;3.67;;
46090;SDS011;31826;53.572;10.170;2023-05-08T03:37:54;7.90;;;3.50;;
46090;SDS011;31826;53.572;10.170;2023-05-08T03:40:20;5.73;;;3.40;;
46090;SDS011;31826;53.572;10.170;2023-05-08T03:42:46;5.93;;;3.30;;
46090;SDS011;31826;53.572;10.170;2023-05-08T03:45:12;6.20;;;3.10;;
46090;SDS011;31826;53.572;10.170;2023-05-08T03:47:39;6.45;;;3.38;;
46090;SDS011;31826;53.572;10.170;2023-05-08T03:50:07;6.07;;;3.13;;
46090;SDS011;31826;53.572;10.170;2023-05-08T03:52:33;6.05;;;3.35;;
46090;SDS011;31826;53.572;10.170;2023-05-08T03:54:59;5.20;;;3.05;;
46090;SDS011;31826;53.572;10.170;2023-05-08T03:57:30;6.30;;;3.70;;
46090;SDS011;31826;53.572;10.170;2023-05-08T04:00:12;6.20;;;3.42;;
46090;SDS011;31826;53.572;10.170;2023-05-08T04:02:46;7.90;;;3.60;;
46090;SDS011;31826;53.572;10.170;2023-05-08T04:06:02;7.28;;;3.40;;
46090;SDS011;31826;53.572;10.170;2023-05-08T04:08:41;7.53;;;3.63;;
46090;SDS011;31826;53.572;10.170;2023-05-08T04:11:26;6.10;;;3.63;;
46090;SDS011;31826;53.572;10.170;2023-05-08T04:13:59;5.13;;;3.25;;
46090;SDS011;31826;53.572;10.170;2023-05-08T04:16:28;6.03;;;3.50;;
46090;SDS011;31826;53.572;10.170;2023-05-08T04:19:05;7.45;;;3.60;;
46090;SDS011;31826;53.572;10.170;2023-05-08T04:21:34;6.43;;;3.60;;
46090;SDS011;31826;53.572;10.170;2023-05-08T04:24:03;7.85;;;3.78;;
46090;SDS011;31826;53.572;10.170;2023-05-08T04:26:32;6.68;;;3.67;;
46090;SDS011;31826;53.572;10.170;2023-05-08T04:28:58;7.05;;;3.67;;
46090;SDS011;31826;53.572;10.170;2023-05-08T04:31:24;6.28;;;3.30;;
46090;SDS011;31826;53.572;10.170;2023-05-08T04:33:51;8.30;;;3.40;;
46090;SDS011;31826;53.572;10.170;2023-05-08T04:36:18;8.48;;;3.85;;
46090;SDS011;31826;53.572;10.170;2023-05-08T04:38:43;8.52;;;3.83;;
46090;SDS011;31826;53.572;10.170;2023-05-08T04:41:09;7.85;;;3.90;;
46090;SDS011;31826;53.572;10.170;2023-05-08T04:43:35;9.05;;;4.03;;
46090;SDS011;31826;53.572;10.170;2023-05-08T04:46:01;6.30;;;3.60;;
46090;SDS011;31826;53.572;10.170;2023-05-08T04:48:29;6.67;;;3.67;;
46090;SDS011;31826;53.572;10.170;2023-05-08T04:50:57;7.80;;;3.70;;
46090;SDS011;31826;53.572;10.170;2023-05-08T04:53:22;7.10;;;3.67;;
46090;SDS011;31826;53.572;10.170;2023-05-08T04:55:48;6.63;;;3.73;;
46090;SDS011;31826;53.572;10.170;2023-05-08T04:58:14;7.05;;;3.60;;
46090;SDS011;31826;53.572;10.170;2023-05-08T05:00:39;7.47;;;3.90;;
46090;SDS011;31826;53.572;10.170;2023-05-08T05:03:05;6.93;;;3.58;;
46090;SDS011;31826;53.572;10.170;2023-05-08T05:05:31;5.88;;;3.42;;
46090;SDS011;31826;53.572;10.170;2023-05-08T05:07:58;8.52;;;3.60;;
46090;SDS011;31826;53.572;10.170;2023-05-08T05:10:24;8.18;;;4.30;;
46090;SDS011;31826;53.572;10.170;2023-05-08T05:12:50;6.57;;;3.83;;
46090;SDS011;31826;53.572;10.170;2023-05-08T05:15:15;6.60;;;3.97;;
46090;SDS011;31826;53.572;10.170;2023-05-08T05:17:41;8.93;;;4.30;;
46090;SDS011;31826;53.572;10.170;2023-05-08T05:20:07;7.83;;;3.63;;
46090;SDS011;31826;53.572;10.170;2023-05-08T05:22:33;7.05;;;3.78;;
46090;SDS011;31826;53.572;10.170;2023-05-08T05:24:59;8.27;;;4.20;;
46090;SDS011;31826;53.572;10.170;2023-05-08T05:27:25;8.23;;;4.28;;
46090;SDS011;31826;53.572;10.170;2023-05-08T05:29:50;7.70;;;4.07;;
46090;SDS011;31826;53.572;10.170;2023-05-08T05:32:16;7.53;;;3.70;;
46090;SDS011;31826;53.572;10.170;2023-05-08T05:34:42;7.05;;;3.90;;
46090;SDS011;31826;53.572;10.170;2023-05-08T05:37:08;8.53;;;4.13;;
46090;SDS011;31826;53.572;10.170;2023-05-08T05:39:34;8.90;;;4.10;;
46090;SDS011;31826;53.572;10.170;2023-05-08T05:42:00;8.18;;;4.03;;
46090;SDS011;31826;53.572;10.170;2023-05-08T05:44:26;8.18;;;4.18;;
46090;SDS011;31826;53.572;10.170;2023-05-08T05:46:51;7.75;;;3.88;;
46090;SDS011;31826;53.572;10.170;2023-05-08T05:49:18;7.73;;;3.77;;
46090;SDS011;31826;53.572;10.170;2023-05-08T05:51:44;8.23;;;4.50;;
46090;SDS011;31826;53.572;10.170;2023-05-08T05:54:09;10.13;;;4.53;;
46090;SDS011;31826;53.572;10.170;2023-05-08T05:56:35;9.33;;;4.30;;
46090;SDS011;31826;53.572;10.170;2023-05-08T05:59:01;8.83;;;4.00;;
46090;SDS011;31826;53.572;10.170;2023-05-08T06:01:27;8.37;;;4.23;;
46090;SDS011;31826;53.572;10.170;2023-05-08T06:03:53;6.82;;;3.83;;
46090;SDS011;31826;53.572;10.170;2023-05-08T06:06:19;9.02;;;4.43;;
46090;SDS011;31826;53.572;10.170;2023-05-08T06:08:45;7.55;;;3.75;;
46090;SDS011;31826;53.572;10.170;2023-05-08T06:11:10;8.90;;;4.18;;
46090;SDS011;31826;53.572;10.170;2023-05-08T06:13:38;9.07;;;4.43;;
46090;SDS011;31826;53.572;10.170;2023-05-08T06:16:05;8.20;;;4.35;;
46090;SDS011;31826;53.572;10.170;2023-05-08T06:18:32;12.32;;;4.20;;
46090;SDS011;31826;53.572;10.170;2023-05-08T06:20:57;12.73;;;5.03;;
46090;SDS011;31826;53.572;10.170;2023-05-08T06:23:24;7.43;;;4.35;;
46090;SDS011;31826;53.572;10.170;2023-05-08T06:25:51;9.48;;;4.00;;
46090;SDS011;31826;53.572;10.170;2023-05-08T06:28:17;8.13;;;3.95;;
46090;SDS011;31826;53.572;10.170;2023-05-08T06:30:42;9.18;;;4.72;;
46090;SDS011;31826;53.572;10.170;2023-05-08T06:33:08;9.33;;;4.50;;
46090;SDS011;31826;53.572;10.170;2023-05-08T06:35:35;8.52;;;4.45;;
46090;SDS011;31826;53.572;10.170;2023-05-08T06:38:01;8.50;;;4.43;;
46090;SDS011;31826;53.572;10.170;2023-05-08T06:40:27;9.03;;;4.23;;
46090;SDS011;31826;53.572;10.170;2023-05-08T06:42:52;8.27;;;4.47;;
46090;SDS011;31826;53.572;10.170;2023-05-08T06:45:18;9.50;;;4.63;;
46090;SDS011;31826;53.572;10.170;2023-05-08T06:47:44;10.03;;;4.17;;
46090;SDS011;31826;53.572;10.170;2023-05-08T06:50:10;9.93;;;4.50;;
46090;SDS011;31826;53.572;10.170;2023-05-08T06:52:35;9.30;;;4.63;;
46090;SDS011;31826;53.572;10.170;2023-05-08T06:55:01;9.00;;;4.20;;
46090;SDS011;31826;53.572;10.170;2023-05-08T06:57:27;10.70;;;4.20;;
46090;SDS011;31826;53.572;10.170;2023-05-08T06:59:54;9.43;;;4.23;;
46090;SDS011;31826;53.572;10.170;2023-05-08T07:02:20;8.95;;;4.53;;
46090;SDS011;31826;53.572;10.170;2023-05-08T07:04:46;9.93;;;4.72;;
46090;SDS011;31826;53.572;10.170;2023-05-08T07:07:12;9.45;;;4.32;;
46090;SDS011;31826;53.572;10.170;2023-05-08T07:09:38;8.43;;;4.20;;
46090;SDS011;31826;53.572;10.170;2023-05-08T07:12:04;7.78;;;4.30;;
46090;SDS011;31826;53.572;10.170;2023-05-08T07:14:30;9.77;;;4.50;;
46090;SDS011;31826;53.572;10.170;2023-05-08T07:16:55;9.43;;;4.40;;
46090;SDS011;31826;53.572;10.170;2023-05-08T07:19:22;9.48;;;4.75;;
46090;SDS011;31826;53.572;10.170;2023-05-08T07:21:49;8.57;;;4.57;;
46090;SDS011;31826;53.572;10.170;2023-05-08T07:24:14;8.75;;;4.78;;
46090;SDS011;31826;53.572;10.170;2023-05-08T07:26:40;9.50;;;4.53;;
46090;SDS011;31826;53.572;10.170;2023-05-08T07:29:06;9.27;;;4.63;;
46090;SDS011;31826;53.572;10.170;2023-05-08T07:31:32;10.07;;;4.90;;
46090;SDS011;31826;53.572;10.170;2023-05-08T07:33:58;9.17;;;5.10;;
46090;SDS011;31826;53.572;10.170;2023-05-08T07:36:23;9.80;;;5.03;;
46090;SDS011;31826;53.572;10.170;2023-05-08T07:38:49;9.63;;;4.82;;
46090;SDS011;31826;53.572;10.170;2023-05-08T07:41:15;9.02;;;4.93;;
46090;SDS011;31826;53.572;10.170;2023-05-08T07:43:40;8.85;;;4.88;;
46090;SDS011;31826;53.572;10.170;2023-05-08T07:46:07;9.10;;;5.00;;
46090;SDS011;31826;53.572;10.170;2023-05-08T07:48:39;9.23;;;4.90;;
46090;SDS011;31826;53.572;10.170;2023-05-08T07:51:05;9.23;;;4.73;;
46090;SDS011;31826;53.572;10.170;2023-05-08T07:53:31;9.80;;;4.87;;
46090;SDS011;31826;53.572;10.170;2023-05-08T07:55:56;10.55;;;5.25;;
46090;SDS011;31826;53.572;10.170;2023-05-08T07:58:22;10.70;;;5.63;;
46090;SDS011;31826;53.572;10.170;2023-05-08T08:00:48;10.85;;;4.88;;
46090;SDS011;31826;53.572;10.170;2023-05-08T08:03:13;9.30;;;4.90;;
46090;SDS011;31826;53.572;10.170;2023-05-08T08:05:39;10.40;;;5.57;;
46090;SDS011;31826;53.572;10.170;2023-05-08T08:08:06;9.60;;;4.78;;
46090;SDS011;31826;53.572;10.170;2023-05-08T08:10:31;10.00;;;5.10;;
46090;SDS011;31826;53.572;10.170;2023-05-08T08:12:58;9.77;;;5.20;;
46090;SDS011;31826;53.572;10.170;2023-05-08T08:15:25;11.90;;;5.73;;
46090;SDS011;31826;53.572;10.170;2023-05-08T08:17:52;9.77;;;5.55;;
46090;SDS011;31826;53.572;10.170;2023-05-08T08:20:18;8.52;;;4.70;;
46090;SDS011;31826;53.572;10.170;2023-05-08T08:22:44;9.65;;;5.32;;
46090;SDS011;31826;53.572;10.170;2023-05-08T08:25:10;8.95;;;5.30;;
46090;SDS011;31826;53.572;10.170;2023-05-08T08:27:36;10.48;;;5.30;;
46090;SDS011;31826;53.572;10.170;2023-05-08T08:30:01;9.55;;;5.38;;
46090;SDS011;31826;53.572;10.170;2023-05-08T08:32:27;9.70;;;5.03;;
46090;SDS011;31826;53.572;10.170;2023-05-08T08:34:53;8.75;;;4.63;;
46090;SDS011;31826;53.572;10.170;2023-05-08T08:37:19;8.77;;;4.43;;
46090;SDS011;31826;53.572;10.170;2023-05-08T08:39:44;9.65;;;5.30;;
46090;SDS011;31826;53.572;10.170;2023-05-08T08:42:12;8.90;;;4.93;;
46090;SDS011;31826;53.572;10.170;2023-05-08T08:44:38;9.00;;;5.03;;
46090;SDS011;31826;53.572;10.170;2023-05-08T08:47:03;10.27;;;5.03;;
46090;SDS011;31826;53.572;10.170;2023-05-08T08:49:31;10.57;;;5.50;;
46090;SDS011;31826;53.572;10.170;2023-05-08T08:52:06;8.85;;;4.97;;
46090;SDS011;31826;53.572;10.170;2023-05-08T08:54:43;10.23;;;5.13;;
46090;SDS011;31826;53.572;10.170;2023-05-08T08:57:13;9.70;;;5.32;;
46090;SDS011;31826;53.572;10.170;2023-05-08T08:59:39;9.63;;;5.20;;
46090;SDS011;31826;53.572;10.170;2023-05-08T09:02:10;9.03;;;4.67;;
46090;SDS011;31826;53.572;10.170;2023-05-08T09:04:41;8.88;;;4.80;;
46090;SDS011;31826;53.572;10.170;2023-05-08T09:07:07;9.32;;;5.10;;
46090;SDS011;31826;53.572;10.170;2023-05-08T09:09:35;8.83;;;4.77;;
46090;SDS011;31826;53.572;10.170;2023-05-08T09:12:05;9.13;;;4.22;;
46090;SDS011;31826;53.572;10.170;2023-05-08T09:14:31;8.73;;;4.55;;
46090;SDS011;31826;53.572;10.170;2023-05-08T09:16:57;10.70;;;4.80;;
46090;SDS011;31826;53.572;10.170;2023-05-08T09:19:22;10.17;;;4.93;;
46090;SDS011;31826;53.572;10.170;2023-05-08T09:21:50;8.53;;;4.57;;
46090;SDS011;31826;53.572;10.170;2023-05-08T09:24:16;7.88;;;4.40;;
46090;SDS011;31826;53.572;10.170;2023-05-08T09:26:42;8.75;;;4.25;;
46090;SDS011;31826;53.572;10.170;2023-05-08T09:29:08;9.52;;;4.65;;
46090;SDS011;31826;53.572;10.170;2023-05-08T09:31:46;9.23;;;4.85;;
46090;SDS011;31826;53.572;10.170;2023-05-08T09:37:10;8.13;;;4.55;;
46090;SDS011;31826;53.572;10.170;2023-05-08T09:39:37;8.65;;;4.50;;
46090;SDS011;31826;53.572;10.170;2023-05-08T09:42:05;9.95;;;4.28;;
46090;SDS011;31826;53.572;10.170;2023-05-08T09:44:47;9.10;;;4.05;;
46090;SDS011;31826;53.572;10.170;2023-05-08T09:47:22;8.70;;;4.22;;
46090;SDS011;31826;53.572;10.170;2023-05-08T09:49:58;7.70;;;4.07;;
46090;SDS011;31826;53.572;10.170;2023-05-08T09:52:29;8.77;;;4.45;;
46090;SDS011;31826;53.572;10.170;2023-05-08T09:55:02;8.63;;;4.10;;
46090;SDS011;31826;53.572;10.170;2023-05-08T09:57:31;7.85;;;3.88;;
46090;SDS011;31826;53.572;10.170;2023-05-08T10:00:10;8.35;;;4.30;;
46090;SDS011;31826;53.572;10.170;2023-05-08T10:02:37;8.27;;;4.07;;
46090;SDS011;31826;53.572;10.170;2023-05-08T10:05:27;8.13;;;4.13;;
46090;SDS011;31826;53.572;10.170;2023-05-08T10:08:16;8.45;;;4.28;;
46090;SDS011;31826;53.572;10.170;2023-05-08T10:10:45;9.13;;;3.90;;
46090;SDS011;31826;53.572;10.170;2023-05-08T10:13:11;7.85;;;3.92;;
46090;SDS011;31826;53.572;10.170;2023-05-08T10:15:37;6.65;;;3.70;;
46090;SDS011;31826;53.572;10.170;2023-05-08T10:18:08;7.63;;;3.87;;
46090;SDS011;31826;53.572;10.170;2023-05-08T10:20:39;6.65;;;3.92;;
46090;SDS011;31826;53.572;10.170;2023-05-08T10:23:07;8.27;;;3.95;;
46090;SDS011;31826;53.572;10.170;2023-05-08T10:25:35;7.50;;;3.67;;
46090;SDS011;31826;53.572;10.170;2023-05-08T10:30:58;6.47;;;3.42;;
46090;SDS011;31826;53.572;10.170;2023-05-08T10:33:28;8.00;;;3.90;;
46090;SDS011;31826;53.572;10.170;2023-05-08T10:35:57;7.95;;;3.75;;
46090;SDS011;31826;53.572;10.170;2023-05-08T10:38:24;7.87;;;3.80;;
46090;SDS011;31826;53.572;10.170;2023-05-08T10:40:50;7.85;;;3.80;;
46090;SDS011;31826;53.572;10.170;2023-05-08T10:43:21;6.50;;;3.63;;
46090;SDS011;31826;53.572;10.170;2023-05-08T10:45:52;7.15;;;3.30;;
46090;SDS011;31826;53.572;10.170;2023-05-08T10:53:48;9.18;;;3.45;;
46090;SDS011;31826;53.572;10.170;2023-05-08T10:56:23;6.93;;;3.35;;
46090;SDS011;31826;53.572;10.170;2023-05-08T10:58:54;5.53;;;3.00;;
46090;SDS011;31826;53.572;10.170;2023-05-08T11:01:21;6.57;;;2.75;;
46090;SDS011;31826;53.572;10.170;2023-05-08T11:03:47;4.57;;;2.67;;
46090;SDS011;31826;53.572;10.170;2023-05-08T11:06:17;5.53;;;2.90;;
46090;SDS011;31826;53.572;10.170;2023-05-08T11:09:03;7.85;;;2.83;;
46090;SDS011;31826;53.572;10.170;2023-05-08T11:11:29;5.10;;;2.60;;
46090;SDS011;31826;53.572;10.170;2023-05-08T11:14:08;4.43;;;2.42;;
46090;SDS011;31826;53.572;10.170;2023-05-08T11:19:21;4.75;;;2.50;;
46090;SDS011;31826;53.572;10.170;2023-05-08T11:35:52;4.13;;;2.25;;
46090;SDS011;31826;53.572;10.170;2023-05-08T11:43:28;4.32;;;2.20;;
46090;SDS011;31826;53.572;10.170;2023-05-08T11:48:28;4.32;;;2.20;;
46090;SDS011;31826;53.572;10.170;2023-05-08T11:50:54;6.25;;;2.17;;
46090;SDS011;31826;53.572;10.170;2023-05-08T11:53:20;3.47;;;1.92;;
46090;SDS011;31826;53.572;10.170;2023-05-08T11:55:46;3.80;;;2.30;;
46090;SDS011;31826;53.572;10.170;2023-05-08T11:58:13;3.93;;;1.90;;
46090;SDS011;31826;53.572;10.170;2023-05-08T12:00:40;5.27;;;1.90;;
46090;SDS011;31826;53.572;10.170;2023-05-08T12:03:10;3.47;;;2.03;;
46090;SDS011;31826;53.572;10.170;2023-05-08T12:05:37;3.47;;;2.20;;
46090;SDS011;31826;53.572;10.170;2023-05-08T12:08:04;3.53;;;2.05;;
46090;SDS011;31826;53.572;10.170;2023-05-08T12:10:30;2.33;;;1.67;;
46090;SDS011;31826;53.572;10.170;2023-05-08T12:12:56;2.47;;;1.57;;
46090;SDS011;31826;53.572;10.170;2023-05-08T12:15:22;3.37;;;1.83;;
46090;SDS011;31826;53.572;10.170;2023-05-08T12:17:48;4.33;;;2.13;;
46090;SDS011;31826;53.572;10.170;2023-05-08T12:20:24;3.08;;;1.90;;
46090;SDS011;31826;53.572;10.170;2023-05-08T12:22:51;3.00;;;1.67;;
46090;SDS011;31826;53.572;10.170;2023-05-08T12:25:17;2.88;;;1.42;;
46090;SDS011;31826;53.572;10.170;2023-05-08T12:27:44;3.22;;;1.70;;
46090;SDS011;31826;53.572;10.170;2023-05-08T12:30:10;5.18;;;1.80;;
46090;SDS011;31826;53.572;10.170;2023-05-08T12:32:39;2.10;;;1.60;;
46090;SDS011;31826;53.572;10.170;2023-05-08T12:35:06;2.22;;;1.60;;
46090;SDS011;31826;53.572;10.170;2023-05-08T12:37:32;6.43;;;1.80;;
46090;SDS011;31826;53.572;10.170;2023-05-08T12:39:58;2.43;;;1.53;;
46090;SDS011;31826;53.572;10.170;2023-05-08T12:42:45;2.67;;;1.42;;
46090;SDS011;31826;53.572;10.170;2023-05-08T12:45:24;5.40;;;1.85;;
46090;SDS011;31826;53.572;10.170;2023-05-08T12:47:58;2.97;;;1.50;;
46090;SDS011;31826;53.572;10.170;2023-05-08T12:50:25;2.40;;;1.60;;
46090;SDS011;31826;53.572;10.170;2023-05-08T12:52:51;3.65;;;1.80;;
46090;SDS011;31826;53.572;10.170;2023-05-08T12:55:21;4.60;;;1.80;;
46090;SDS011;31826;53.572;10.170;2023-05-08T13:00:40;3.08;;;1.52;;
46090;SDS011;31826;53.572;10.170;2023-05-08T13:03:11;2.60;;;1.60;;
46090;SDS011;31826;53.572;10.170;2023-05-08T13:05:42;2.75;;;1.40;;
46090;SDS011;31826;53.572;10.170;2023-05-08T13:08:09;2.40;;;1.70;;
46090;SDS011;31826;53.572;10.170;2023-05-08T13:10:51;2.58;;;1.45;;
46090;SDS011;31826;53.572;10.170;2023-05-08T13:13:19;2.67;;;1.60;;
46090;SDS011;31826;53.572;10.170;2023-05-08T13:15:46;3.10;;;1.40;;
46090;SDS011;31826;53.572;10.170;2023-05-08T13:18:13;2.88;;;1.55;;
46090;SDS011;31826;53.572;10.170;2023-05-08T13:20:39;2.50;;;1.50;;
46090;SDS011;31826;53.572;10.170;2023-05-08T13:23:06;3.90;;;1.50;;
46090;SDS011;31826;53.572;10.170;2023-05-08T13:25:32;4.07;;;1.67;;
46090;SDS011;31826;53.572;10.170;2023-05-08T13:27:59;3.83;;;1.65;;
46090;SDS011;31826;53.572;10.170;2023-05-08T13:30:25;6.15;;;1.80;;
46090;SDS011;31826;53.572;10.170;2023-05-08T13:32:51;3.33;;;1.80;;
46090;SDS011;31826;53.572;10.170;2023-05-08T13:35:18;4.80;;;1.80;;
46090;SDS011;31826;53.572;10.170;2023-05-08T13:37:44;2.60;;;1.63;;
46090;SDS011;31826;53.572;10.170;2023-05-08T13:40:10;2.10;;;1.50;;
46090;SDS011;31826;53.572;10.170;2023-05-08T13:42:36;3.05;;;1.63;;
46090;SDS011;31826;53.572;10.170;2023-05-08T13:45:05;3.25;;;1.80;;
46090;SDS011;31826;53.572;10.170;2023-05-08T13:47:32;4.25;;;1.63;;
46090;SDS011;31826;53.572;10.170;2023-05-08T13:49:59;2.60;;;1.67;;
46090;SDS011;31826;53.572;10.170;2023-05-08T13:52:24;2.80;;;1.70;;
46090;SDS011;31826;53.572;10.170;2023-05-08T13:54:53;4.25;;;1.98;;
46090;SDS011;31826;53.572;10.170;2023-05-08T13:57:19;3.10;;;1.60;;
46090;SDS011;31826;53.572;10.170;2023-05-08T13:59:45;7.50;;;2.20;;
46090;SDS011;31826;53.572;10.170;2023-05-08T14:02:11;2.65;;;1.67;;
46090;SDS011;31826;53.572;10.170;2023-05-08T14:04:37;3.67;;;1.60;;
46090;SDS011;31826;53.572;10.170;2023-05-08T14:07:02;2.42;;;1.50;;
46090;SDS011;31826;53.572;10.170;2023-05-08T14:09:28;3.45;;;1.67;;
46090;SDS011;31826;53.572;10.170;2023-05-08T14:11:54;3.37;;;1.53;;
46090;SDS011;31826;53.572;10.170;2023-05-08T14:14:19;4.07;;;1.80;;
46090;SDS011;31826;53.572;10.170;2023-05-08T14:16:45;1.77;;;1.35;;
46090;SDS011;31826;53.572;10.170;2023-05-08T14:19:12;3.30;;;1.50;;
46090;SDS011;31826;53.572;10.170;2023-05-08T14:21:37;3.70;;;1.27;;
46090;SDS011;31826;53.572;10.170;2023-05-08T14:24:04;2.13;;;1.33;;
46090;SDS011;31826;53.572;10.170;2023-05-08T14:26:30;2.47;;;1.48;;
46090;SDS011;31826;53.572;10.170;2023-05-08T14:28:56;2.53;;;1.50;;
46090;SDS011;31826;53.572;10.170;2023-05-08T14:31:21;2.45;;;1.50;;
46090;SDS011;31826;53.572;10.170;2023-05-08T14:33:47;3.53;;;1.60;;
46090;SDS011;31826;53.572;10.170;2023-05-08T14:36:13;3.33;;;1.30;;
46090;SDS011;31826;53.572;10.170;2023-05-08T14:38:38;2.58;;;1.60;;
46090;SDS011;31826;53.572;10.170;2023-05-08T14:41:04;2.47;;;1.45;;
46090;SDS011;31826;53.572;10.170;2023-05-08T14:43:30;2.10;;;1.40;;
46090;SDS011;31826;53.572;10.170;2023-05-08T14:45:56;5.25;;;1.67;;
46090;SDS011;31826;53.572;10.170;2023-05-08T14:48:21;2.80;;;1.30;;
46090;SDS011;31826;53.572;10.170;2023-05-08T14:50:48;2.85;;;1.30;;
46090;SDS011;31826;53.572;10.170;2023-05-08T14:53:13;2.47;;;1.30;;
46090;SDS011;31826;53.572;10.170;2023-05-08T14:55:39;2.07;;;1.23;;
46090;SDS011;31826;53.572;10.170;2023-05-08T14:58:05;2.50;;;1.20;;
46090;SDS011;31826;53.572;10.170;2023-05-08T15:00:31;2.35;;;1.52;;
46090;SDS011;31826;53.572;10.170;2023-05-08T15:02:56;3.00;;;1.50;;
46090;SDS011;31826;53.572;10.170;2023-05-08T15:05:22;3.72;;;1.60;;
46090;SDS011;31826;53.572;10.170;2023-05-08T15:07:48;3.78;;;1.50;;
46090;SDS011;31826;53.572;10.170;2023-05-08T15:10:14;3.60;;;1.38;;
46090;SDS011;31826;53.572;10.170;2023-05-08T15:12:39;4.50;;;1.53;;
46090;SDS011;31826;53.572;10.170;2023-05-08T15:15:05;2.37;;;1.30;;
46090;SDS011;31826;53.572;10.170;2023-05-08T15:17:31;2.60;;;1.40;;
46090;SDS011;31826;53.572;10.170;2023-05-08T15:20:00;2.83;;;1.48;;
46090;SDS011;31826;53.572;10.170;2023-05-08T15:22:27;4.37;;;1.40;;
46090;SDS011;31826;53.572;10.170;2023-05-08T15:24:53;2.30;;;1.33;;
46090;SDS011;31826;53.572;10.170;2023-05-08T15:27:19;4.03;;;1.42;;
46090;SDS011;31826;53.572;10.170;2023-05-08T15:29:45;2.87;;;1.50;;
46090;SDS011;31826;53.572;10.170;2023-05-08T15:32:11;3.35;;;1.30;;
46090;SDS011;31826;53.572;10.170;2023-05-08T15:34:37;2.25;;;1.30;;
46090;SDS011;31826;53.572;10.170;2023-05-08T15:37:03;2.42;;;1.20;;